sensor_id;sensor_type;location;lat;lon;timestamp;P1;durP1;ratioP1;P2;durP2;ratioP2
27039;SDS011;14589;51.578;7.306;2023-07-31T00:00:44;3.00;;;1.23;;
27039;SDS011;14589;51.578;7.306;2023-07-31T00:03:16;2.40;;;1.52;;
27039;SDS011;14589;51.578;7.306;2023-07-31T00:05:46;1.58;;;1.45;;
27039;SDS011;14589;51.578;7.306;2023-07-31T00:08:17;1.88;;;0.80;;
27039;SDS011;14589;51.578;7.306;2023-07-31T00:10:50;1.67;;;0.55;;
27039;SDS011;14589;51.578;7.306;2023-07-31T00:13:21;2.45;;;0.98;;
27039;SDS011;14589;51.578;7.306;2023-07-31T00:15:52;1.38;;;0.22;;
27039;SDS011;14589;51.578;7.306;2023-07-31T00:18:22;1.00;;;0.35;;
27039;SDS011;14589;51.578;7.306;2023-07-31T00:20:52;0.85;;;0.45;;
27039;SDS011;14589;51.578;7.306;2023-07-31T00:23:23;1.27;;;0.40;;
27039;SDS011;14589;51.578;7.306;2023-07-31T00:25:53;1.63;;;0.52;;
27039;SDS011;14589;51.578;7.306;2023-07-31T00:28:23;0.82;;;0.30;;
27039;SDS011;14589;51.578;7.306;2023-07-31T00:30:54;0.75;;;0.43;;
27039;SDS011;14589;51.578;7.306;2023-07-31T00:33:24;1.02;;;0.82;;
27039;SDS011;14589;51.578;7.306;2023-07-31T00:35:55;1.63;;;1.50;;
27039;SDS011;14589;51.578;7.306;2023-07-31T00:38:25;2.83;;;1.42;;
27039;SDS011;14589;51.578;7.306;2023-07-31T00:40:55;3.13;;;1.42;;
27039;SDS011;14589;51.578;7.306;2023-07-31T00:43:26;4.30;;;2.30;;
27039;SDS011;14589;51.578;7.306;2023-07-31T00:45:56;3.10;;;2.10;;
27039;SDS011;14589;51.578;7.306;2023-07-31T00:48:26;2.42;;;1.40;;
27039;SDS011;14589;51.578;7.306;2023-07-31T00:50:57;6.00;;;1.90;;
27039;SDS011;14589;51.578;7.306;2023-07-31T00:53:27;6.43;;;1.42;;
27039;SDS011;14589;51.578;7.306;2023-07-31T00:55:58;5.18;;;2.05;;
27039;SDS011;14589;51.578;7.306;2023-07-31T00:58:29;7.45;;;2.67;;
27039;SDS011;14589;51.578;7.306;2023-07-31T01:00:59;8.48;;;2.65;;
27039;SDS011;14589;51.578;7.306;2023-07-31T01:03:31;7.15;;;2.83;;
27039;SDS011;14589;51.578;7.306;2023-07-31T01:08:48;8.27;;;2.65;;
27039;SDS011;14589;51.578;7.306;2023-07-31T01:11:29;9.38;;;3.25;;
27039;SDS011;14589;51.578;7.306;2023-07-31T01:14:01;9.15;;;2.60;;
27039;SDS011;14589;51.578;7.306;2023-07-31T01:16:32;9.88;;;3.35;;
27039;SDS011;14589;51.578;7.306;2023-07-31T01:19:02;10.95;;;4.15;;
27039;SDS011;14589;51.578;7.306;2023-07-31T01:26:47;9.60;;;3.03;;
27039;SDS011;14589;51.578;7.306;2023-07-31T01:29:36;13.50;;;3.67;;
27039;SDS011;14589;51.578;7.306;2023-07-31T01:32:12;8.80;;;2.72;;
27039;SDS011;14589;51.578;7.306;2023-07-31T01:34:45;7.07;;;3.33;;
27039;SDS011;14589;51.578;7.306;2023-07-31T01:37:17;10.90;;;3.75;;
27039;SDS011;14589;51.578;7.306;2023-07-31T01:39:48;5.45;;;2.10;;
27039;SDS011;14589;51.578;7.306;2023-07-31T01:42:19;11.48;;;2.45;;
27039;SDS011;14589;51.578;7.306;2023-07-31T01:44:49;7.72;;;2.85;;
27039;SDS011;14589;51.578;7.306;2023-07-31T01:47:20;8.85;;;2.47;;
27039;SDS011;14589;51.578;7.306;2023-07-31T01:49:50;10.00;;;3.05;;
27039;SDS011;14589;51.578;7.306;2023-07-31T01:52:21;8.75;;;2.78;;
27039;SDS011;14589;51.578;7.306;2023-07-31T01:54:51;5.88;;;2.75;;
27039;SDS011;14589;51.578;7.306;2023-07-31T01:57:22;7.97;;;2.53;;
27039;SDS011;14589;51.578;7.306;2023-07-31T01:59:52;5.35;;;2.47;;
27039;SDS011;14589;51.578;7.306;2023-07-31T02:02:23;11.57;;;1.95;;
27039;SDS011;14589;51.578;7.306;2023-07-31T02:04:53;8.68;;;2.55;;
27039;SDS011;14589;51.578;7.306;2023-07-31T02:07:24;5.45;;;2.47;;
27039;SDS011;14589;51.578;7.306;2023-07-31T02:09:55;6.60;;;3.15;;
27039;SDS011;14589;51.578;7.306;2023-07-31T02:12:26;8.10;;;2.15;;
27039;SDS011;14589;51.578;7.306;2023-07-31T02:14:56;8.07;;;3.08;;
27039;SDS011;14589;51.578;7.306;2023-07-31T02:17:26;10.18;;;1.83;;
27039;SDS011;14589;51.578;7.306;2023-07-31T02:19:57;5.03;;;1.88;;
27039;SDS011;14589;51.578;7.306;2023-07-31T02:22:27;9.82;;;2.35;;
27039;SDS011;14589;51.578;7.306;2023-07-31T02:24:57;4.40;;;2.25;;
27039;SDS011;14589;51.578;7.306;2023-07-31T02:27:28;10.57;;;1.73;;
27039;SDS011;14589;51.578;7.306;2023-07-31T02:29:59;8.27;;;1.98;;
27039;SDS011;14589;51.578;7.306;2023-07-31T02:32:29;5.55;;;2.28;;
27039;SDS011;14589;51.578;7.306;2023-07-31T02:34:59;6.30;;;2.47;;
27039;SDS011;14589;51.578;7.306;2023-07-31T02:37:30;8.57;;;1.80;;
27039;SDS011;14589;51.578;7.306;2023-07-31T02:40:00;7.80;;;2.00;;
27039;SDS011;14589;51.578;7.306;2023-07-31T02:42:32;6.93;;;1.77;;
27039;SDS011;14589;51.578;7.306;2023-07-31T02:45:03;9.35;;;2.22;;
27039;SDS011;14589;51.578;7.306;2023-07-31T02:47:33;6.43;;;2.25;;
27039;SDS011;14589;51.578;7.306;2023-07-31T02:50:05;8.13;;;1.80;;
27039;SDS011;14589;51.578;7.306;2023-07-31T02:52:36;6.75;;;1.75;;
27039;SDS011;14589;51.578;7.306;2023-07-31T02:55:06;5.32;;;1.65;;
27039;SDS011;14589;51.578;7.306;2023-07-31T02:57:37;6.53;;;2.38;;
27039;SDS011;14589;51.578;7.306;2023-07-31T03:00:07;8.15;;;1.90;;
27039;SDS011;14589;51.578;7.306;2023-07-31T03:02:39;4.55;;;2.55;;
27039;SDS011;14589;51.578;7.306;2023-07-31T03:05:09;4.45;;;1.75;;
27039;SDS011;14589;51.578;7.306;2023-07-31T03:07:40;5.35;;;2.10;;
27039;SDS011;14589;51.578;7.306;2023-07-31T03:10:10;4.97;;;1.83;;
27039;SDS011;14589;51.578;7.306;2023-07-31T03:12:41;6.50;;;2.33;;
27039;SDS011;14589;51.578;7.306;2023-07-31T03:15:11;6.03;;;1.75;;
27039;SDS011;14589;51.578;7.306;2023-07-31T03:17:41;7.00;;;1.17;;
27039;SDS011;14589;51.578;7.306;2023-07-31T03:20:12;5.70;;;1.75;;
27039;SDS011;14589;51.578;7.306;2023-07-31T03:22:42;8.27;;;2.63;;
27039;SDS011;14589;51.578;7.306;2023-07-31T03:25:12;9.60;;;2.08;;
27039;SDS011;14589;51.578;7.306;2023-07-31T03:27:44;6.00;;;2.60;;
27039;SDS011;14589;51.578;7.306;2023-07-31T03:30:14;5.65;;;1.65;;
27039;SDS011;14589;51.578;7.306;2023-07-31T03:32:45;9.57;;;1.20;;
27039;SDS011;14589;51.578;7.306;2023-07-31T03:35:16;8.02;;;1.73;;
27039;SDS011;14589;51.578;7.306;2023-07-31T03:37:46;7.00;;;2.67;;
27039;SDS011;14589;51.578;7.306;2023-07-31T03:40:17;9.27;;;1.70;;
27039;SDS011;14589;51.578;7.306;2023-07-31T03:42:47;11.10;;;2.13;;
27039;SDS011;14589;51.578;7.306;2023-07-31T03:45:18;6.97;;;3.60;;
27039;SDS011;14589;51.578;7.306;2023-07-31T03:47:49;5.70;;;1.80;;
27039;SDS011;14589;51.578;7.306;2023-07-31T03:50:20;4.78;;;1.65;;
27039;SDS011;14589;51.578;7.306;2023-07-31T03:52:50;6.13;;;1.73;;
27039;SDS011;14589;51.578;7.306;2023-07-31T03:55:22;6.68;;;1.30;;
27039;SDS011;14589;51.578;7.306;2023-07-31T03:57:52;7.20;;;2.13;;
27039;SDS011;14589;51.578;7.306;2023-07-31T04:00:22;6.72;;;1.67;;
27039;SDS011;14589;51.578;7.306;2023-07-31T04:02:53;7.50;;;1.90;;
27039;SDS011;14589;51.578;7.306;2023-07-31T04:05:23;4.97;;;2.10;;
27039;SDS011;14589;51.578;7.306;2023-07-31T04:07:53;9.63;;;2.78;;
27039;SDS011;14589;51.578;7.306;2023-07-31T04:10:24;11.20;;;3.05;;
27039;SDS011;14589;51.578;7.306;2023-07-31T04:12:54;9.85;;;2.28;;
27039;SDS011;14589;51.578;7.306;2023-07-31T04:15:24;6.32;;;1.70;;
27039;SDS011;14589;51.578;7.306;2023-07-31T04:17:55;8.52;;;2.40;;
27039;SDS011;14589;51.578;7.306;2023-07-31T04:20:25;10.05;;;2.03;;
27039;SDS011;14589;51.578;7.306;2023-07-31T04:22:56;9.07;;;2.10;;
27039;SDS011;14589;51.578;7.306;2023-07-31T04:25:26;8.13;;;1.55;;
27039;SDS011;14589;51.578;7.306;2023-07-31T04:27:56;9.68;;;2.95;;
27039;SDS011;14589;51.578;7.306;2023-07-31T04:30:27;9.60;;;1.50;;
27039;SDS011;14589;51.578;7.306;2023-07-31T04:32:57;6.18;;;2.00;;
27039;SDS011;14589;51.578;7.306;2023-07-31T04:35:27;4.05;;;1.90;;
27039;SDS011;14589;51.578;7.306;2023-07-31T04:37:58;10.13;;;2.13;;
27039;SDS011;14589;51.578;7.306;2023-07-31T04:40:28;7.07;;;2.50;;
27039;SDS011;14589;51.578;7.306;2023-07-31T04:42:58;8.30;;;1.95;;
27039;SDS011;14589;51.578;7.306;2023-07-31T04:45:29;7.78;;;3.45;;
27039;SDS011;14589;51.578;7.306;2023-07-31T04:47:59;8.05;;;2.40;;
27039;SDS011;14589;51.578;7.306;2023-07-31T04:50:29;6.43;;;1.77;;
27039;SDS011;14589;51.578;7.306;2023-07-31T04:53:00;4.57;;;1.38;;
27039;SDS011;14589;51.578;7.306;2023-07-31T04:55:30;7.25;;;2.63;;
27039;SDS011;14589;51.578;7.306;2023-07-31T04:58:01;5.50;;;1.95;;
27039;SDS011;14589;51.578;7.306;2023-07-31T05:00:31;8.07;;;2.55;;
27039;SDS011;14589;51.578;7.306;2023-07-31T05:03:02;5.25;;;1.60;;
27039;SDS011;14589;51.578;7.306;2023-07-31T05:05:32;7.75;;;2.63;;
27039;SDS011;14589;51.578;7.306;2023-07-31T05:08:03;3.85;;;2.13;;
27039;SDS011;14589;51.578;7.306;2023-07-31T05:10:33;5.85;;;2.17;;
27039;SDS011;14589;51.578;7.306;2023-07-31T05:13:04;6.43;;;2.05;;
27039;SDS011;14589;51.578;7.306;2023-07-31T05:15:34;5.40;;;2.25;;
27039;SDS011;14589;51.578;7.306;2023-07-31T05:18:04;5.18;;;1.60;;
27039;SDS011;14589;51.578;7.306;2023-07-31T05:20:35;7.65;;;1.60;;
27039;SDS011;14589;51.578;7.306;2023-07-31T05:23:05;5.25;;;1.48;;
27039;SDS011;14589;51.578;7.306;2023-07-31T05:25:37;7.18;;;1.40;;
27039;SDS011;14589;51.578;7.306;2023-07-31T05:28:07;6.45;;;1.92;;
27039;SDS011;14589;51.578;7.306;2023-07-31T05:30:38;4.05;;;1.65;;
27039;SDS011;14589;51.578;7.306;2023-07-31T05:33:08;7.10;;;1.58;;
27039;SDS011;14589;51.578;7.306;2023-07-31T05:35:38;6.88;;;3.17;;
27039;SDS011;14589;51.578;7.306;2023-07-31T05:38:09;4.85;;;1.33;;
27039;SDS011;14589;51.578;7.306;2023-07-31T05:40:39;9.45;;;2.08;;
27039;SDS011;14589;51.578;7.306;2023-07-31T05:43:09;6.90;;;2.95;;
27039;SDS011;14589;51.578;7.306;2023-07-31T05:45:42;4.60;;;2.17;;
27039;SDS011;14589;51.578;7.306;2023-07-31T05:48:13;7.07;;;2.38;;
27039;SDS011;14589;51.578;7.306;2023-07-31T05:50:43;6.47;;;2.47;;
27039;SDS011;14589;51.578;7.306;2023-07-31T05:53:14;7.85;;;1.98;;
27039;SDS011;14589;51.578;7.306;2023-07-31T05:55:44;6.65;;;1.65;;
27039;SDS011;14589;51.578;7.306;2023-07-31T05:58:15;6.97;;;2.67;;
27039;SDS011;14589;51.578;7.306;2023-07-31T06:00:45;5.00;;;1.75;;
27039;SDS011;14589;51.578;7.306;2023-07-31T06:03:15;10.23;;;2.47;;
27039;SDS011;14589;51.578;7.306;2023-07-31T06:05:46;5.88;;;2.22;;
27039;SDS011;14589;51.578;7.306;2023-07-31T06:08:16;6.47;;;2.70;;
27039;SDS011;14589;51.578;7.306;2023-07-31T06:10:46;5.50;;;2.45;;
27039;SDS011;14589;51.578;7.306;2023-07-31T06:13:17;5.60;;;2.22;;
27039;SDS011;14589;51.578;7.306;2023-07-31T06:15:47;8.13;;;2.53;;
27039;SDS011;14589;51.578;7.306;2023-07-31T06:18:17;3.53;;;1.42;;
27039;SDS011;14589;51.578;7.306;2023-07-31T06:20:48;7.55;;;4.22;;
27039;SDS011;14589;51.578;7.306;2023-07-31T06:23:23;8.20;;;1.88;;
27039;SDS011;14589;51.578;7.306;2023-07-31T06:25:53;4.80;;;1.88;;
27039;SDS011;14589;51.578;7.306;2023-07-31T06:28:30;4.57;;;1.77;;
27039;SDS011;14589;51.578;7.306;2023-07-31T06:31:02;5.80;;;2.17;;
27039;SDS011;14589;51.578;7.306;2023-07-31T06:33:32;3.83;;;2.03;;
27039;SDS011;14589;51.578;7.306;2023-07-31T06:36:02;9.32;;;3.10;;
27039;SDS011;14589;51.578;7.306;2023-07-31T06:38:33;11.52;;;2.00;;
27039;SDS011;14589;51.578;7.306;2023-07-31T06:41:03;7.93;;;2.22;;
27039;SDS011;14589;51.578;7.306;2023-07-31T06:43:34;7.88;;;2.47;;
27039;SDS011;14589;51.578;7.306;2023-07-31T06:46:05;5.57;;;1.95;;
27039;SDS011;14589;51.578;7.306;2023-07-31T06:48:36;4.60;;;2.00;;
27039;SDS011;14589;51.578;7.306;2023-07-31T06:51:07;7.00;;;2.25;;
27039;SDS011;14589;51.578;7.306;2023-07-31T06:53:38;7.78;;;2.42;;
27039;SDS011;14589;51.578;7.306;2023-07-31T06:56:08;6.85;;;2.70;;
27039;SDS011;14589;51.578;7.306;2023-07-31T06:58:39;5.80;;;2.40;;
27039;SDS011;14589;51.578;7.306;2023-07-31T07:01:09;5.95;;;2.35;;
27039;SDS011;14589;51.578;7.306;2023-07-31T07:03:40;10.60;;;3.03;;
27039;SDS011;14589;51.578;7.306;2023-07-31T07:06:10;4.97;;;2.25;;
27039;SDS011;14589;51.578;7.306;2023-07-31T07:08:40;6.13;;;1.88;;
27039;SDS011;14589;51.578;7.306;2023-07-31T07:11:11;6.28;;;2.40;;
27039;SDS011;14589;51.578;7.306;2023-07-31T07:13:41;7.35;;;2.58;;
27039;SDS011;14589;51.578;7.306;2023-07-31T07:16:11;5.28;;;2.20;;
27039;SDS011;14589;51.578;7.306;2023-07-31T07:18:42;7.88;;;2.15;;
27039;SDS011;14589;51.578;7.306;2023-07-31T07:21:12;6.95;;;1.95;;
27039;SDS011;14589;51.578;7.306;2023-07-31T07:23:45;5.25;;;2.20;;
27039;SDS011;14589;51.578;7.306;2023-07-31T07:26:16;3.80;;;1.73;;
27039;SDS011;14589;51.578;7.306;2023-07-31T07:28:46;7.50;;;2.20;;
27039;SDS011;14589;51.578;7.306;2023-07-31T07:31:16;6.43;;;1.40;;
27039;SDS011;14589;51.578;7.306;2023-07-31T07:33:47;4.75;;;2.05;;
27039;SDS011;14589;51.578;7.306;2023-07-31T07:36:17;8.27;;;1.33;;
27039;SDS011;14589;51.578;7.306;2023-07-31T07:38:48;4.13;;;1.98;;
27039;SDS011;14589;51.578;7.306;2023-07-31T07:41:18;4.53;;;1.60;;
27039;SDS011;14589;51.578;7.306;2023-07-31T07:43:48;3.05;;;1.35;;
27039;SDS011;14589;51.578;7.306;2023-07-31T07:46:19;6.28;;;1.55;;
27039;SDS011;14589;51.578;7.306;2023-07-31T07:48:49;6.80;;;1.77;;
27039;SDS011;14589;51.578;7.306;2023-07-31T07:51:19;5.90;;;1.98;;
27039;SDS011;14589;51.578;7.306;2023-07-31T07:53:50;4.25;;;1.70;;
27039;SDS011;14589;51.578;7.306;2023-07-31T07:56:20;4.88;;;1.73;;
27039;SDS011;14589;51.578;7.306;2023-07-31T07:58:51;6.88;;;1.95;;
27039;SDS011;14589;51.578;7.306;2023-07-31T08:01:21;3.58;;;1.48;;
27039;SDS011;14589;51.578;7.306;2023-07-31T08:03:51;5.53;;;1.65;;
27039;SDS011;14589;51.578;7.306;2023-07-31T08:06:22;5.93;;;2.17;;
27039;SDS011;14589;51.578;7.306;2023-07-31T08:08:52;6.50;;;2.35;;
27039;SDS011;14589;51.578;7.306;2023-07-31T08:11:23;3.85;;;1.60;;
27039;SDS011;14589;51.578;7.306;2023-07-31T08:13:53;3.38;;;1.45;;
27039;SDS011;14589;51.578;7.306;2023-07-31T08:16:23;6.25;;;2.70;;
27039;SDS011;14589;51.578;7.306;2023-07-31T08:18:54;6.25;;;1.92;;
27039;SDS011;14589;51.578;7.306;2023-07-31T08:21:24;5.75;;;2.45;;
27039;SDS011;14589;51.578;7.306;2023-07-31T08:23:54;4.38;;;1.25;;
27039;SDS011;14589;51.578;7.306;2023-07-31T08:26:25;3.22;;;0.98;;
27039;SDS011;14589;51.578;7.306;2023-07-31T08:28:55;3.10;;;1.50;;
27039;SDS011;14589;51.578;7.306;2023-07-31T08:31:26;3.78;;;1.42;;
27039;SDS011;14589;51.578;7.306;2023-07-31T08:33:57;5.22;;;1.23;;
27039;SDS011;14589;51.578;7.306;2023-07-31T08:36:27;3.30;;;2.00;;
27039;SDS011;14589;51.578;7.306;2023-07-31T08:38:57;2.83;;;1.27;;
27039;SDS011;14589;51.578;7.306;2023-07-31T08:41:28;2.70;;;1.98;;
27039;SDS011;14589;51.578;7.306;2023-07-31T08:43:58;3.13;;;1.33;;
27039;SDS011;14589;51.578;7.306;2023-07-31T08:46:30;3.17;;;1.08;;
27039;SDS011;14589;51.578;7.306;2023-07-31T08:49:04;2.70;;;1.20;;
27039;SDS011;14589;51.578;7.306;2023-07-31T08:51:36;2.17;;;1.10;;
27039;SDS011;14589;51.578;7.306;2023-07-31T08:54:06;2.65;;;0.80;;
27039;SDS011;14589;51.578;7.306;2023-07-31T08:56:37;6.28;;;1.48;;
27039;SDS011;14589;51.578;7.306;2023-07-31T08:59:09;4.63;;;1.00;;
27039;SDS011;14589;51.578;7.306;2023-07-31T09:01:42;2.95;;;0.85;;
27039;SDS011;14589;51.578;7.306;2023-07-31T09:04:18;5.93;;;1.33;;
27039;SDS011;14589;51.578;7.306;2023-07-31T09:06:50;5.07;;;0.95;;
27039;SDS011;14589;51.578;7.306;2023-07-31T09:09:27;2.92;;;0.63;;
27039;SDS011;14589;51.578;7.306;2023-07-31T09:11:57;2.40;;;0.90;;
27039;SDS011;14589;51.578;7.306;2023-07-31T09:14:28;4.65;;;0.95;;
27039;SDS011;14589;51.578;7.306;2023-07-31T09:16:58;1.75;;;0.47;;
27039;SDS011;14589;51.578;7.306;2023-07-31T09:19:32;2.10;;;0.57;;
27039;SDS011;14589;51.578;7.306;2023-07-31T09:22:04;2.00;;;1.05;;
27039;SDS011;14589;51.578;7.306;2023-07-31T09:24:35;2.42;;;0.60;;
27039;SDS011;14589;51.578;7.306;2023-07-31T09:27:06;3.30;;;0.70;;
27039;SDS011;14589;51.578;7.306;2023-07-31T09:29:36;3.28;;;0.40;;
27039;SDS011;14589;51.578;7.306;2023-07-31T09:32:12;2.55;;;0.95;;
27039;SDS011;14589;51.578;7.306;2023-07-31T09:34:46;0.80;;;0.40;;
27039;SDS011;14589;51.578;7.306;2023-07-31T09:37:16;4.28;;;0.93;;
27039;SDS011;14589;51.578;7.306;2023-07-31T09:39:47;1.50;;;0.50;;
27039;SDS011;14589;51.578;7.306;2023-07-31T09:42:25;1.75;;;0.50;;
27039;SDS011;14589;51.578;7.306;2023-07-31T09:45:06;3.35;;;0.60;;
27039;SDS011;14589;51.578;7.306;2023-07-31T09:47:37;1.65;;;0.60;;
27039;SDS011;14589;51.578;7.306;2023-07-31T09:50:08;1.67;;;0.90;;
27039;SDS011;14589;51.578;7.306;2023-07-31T09:52:39;1.52;;;0.73;;
27039;SDS011;14589;51.578;7.306;2023-07-31T09:55:10;2.55;;;0.85;;
27039;SDS011;14589;51.578;7.306;2023-07-31T09:57:41;1.70;;;0.57;;
27039;SDS011;14589;51.578;7.306;2023-07-31T10:00:18;1.45;;;0.60;;
27039;SDS011;14589;51.578;7.306;2023-07-31T10:02:50;3.00;;;0.88;;
27039;SDS011;14589;51.578;7.306;2023-07-31T10:05:21;2.10;;;0.57;;
27039;SDS011;14589;51.578;7.306;2023-07-31T10:07:53;2.53;;;0.63;;
27039;SDS011;14589;51.578;7.306;2023-07-31T10:10:25;1.60;;;0.80;;
27039;SDS011;14589;51.578;7.306;2023-07-31T10:12:57;1.60;;;0.63;;
27039;SDS011;14589;51.578;7.306;2023-07-31T10:15:29;3.28;;;0.85;;
27039;SDS011;14589;51.578;7.306;2023-07-31T10:18:00;1.77;;;0.98;;
27039;SDS011;14589;51.578;7.306;2023-07-31T10:20:32;1.75;;;0.75;;
27039;SDS011;14589;51.578;7.306;2023-07-31T10:23:04;1.20;;;0.43;;
27039;SDS011;14589;51.578;7.306;2023-07-31T10:25:35;1.70;;;0.55;;
27039;SDS011;14589;51.578;7.306;2023-07-31T10:28:06;1.15;;;0.60;;
27039;SDS011;14589;51.578;7.306;2023-07-31T10:30:38;1.73;;;0.50;;
27039;SDS011;14589;51.578;7.306;2023-07-31T10:33:10;1.73;;;0.68;;
27039;SDS011;14589;51.578;7.306;2023-07-31T10:35:41;1.10;;;0.25;;
27039;SDS011;14589;51.578;7.306;2023-07-31T10:38:11;1.90;;;0.68;;
27039;SDS011;14589;51.578;7.306;2023-07-31T10:40:43;2.78;;;0.90;;
27039;SDS011;14589;51.578;7.306;2023-07-31T10:45:56;2.00;;;0.35;;
27039;SDS011;14589;51.578;7.306;2023-07-31T10:48:26;1.27;;;0.57;;
27039;SDS011;14589;51.578;7.306;2023-07-31T10:51:07;1.05;;;0.55;;
27039;SDS011;14589;51.578;7.306;2023-07-31T10:53:40;1.63;;;0.75;;
27039;SDS011;14589;51.578;7.306;2023-07-31T10:56:10;1.05;;;0.20;;
27039;SDS011;14589;51.578;7.306;2023-07-31T10:58:48;1.55;;;0.70;;
27039;SDS011;14589;51.578;7.306;2023-07-31T11:01:50;1.08;;;0.40;;
27039;SDS011;14589;51.578;7.306;2023-07-31T11:04:26;2.30;;;0.90;;
27039;SDS011;14589;51.578;7.306;2023-07-31T11:06:58;1.55;;;0.45;;
27039;SDS011;14589;51.578;7.306;2023-07-31T11:09:29;0.88;;;0.47;;
27039;SDS011;14589;51.578;7.306;2023-07-31T11:12:02;1.48;;;0.60;;
27039;SDS011;14589;51.578;7.306;2023-07-31T11:14:32;1.42;;;0.57;;
27039;SDS011;14589;51.578;7.306;2023-07-31T11:17:07;2.13;;;0.75;;
27039;SDS011;14589;51.578;7.306;2023-07-31T11:19:37;2.38;;;1.20;;
27039;SDS011;14589;51.578;7.306;2023-07-31T11:22:08;2.75;;;1.05;;
27039;SDS011;14589;51.578;7.306;2023-07-31T11:24:39;2.28;;;0.90;;
27039;SDS011;14589;51.578;7.306;2023-07-31T11:27:09;2.47;;;1.08;;
27039;SDS011;14589;51.578;7.306;2023-07-31T11:29:39;3.60;;;1.33;;
27039;SDS011;14589;51.578;7.306;2023-07-31T11:32:15;2.92;;;1.15;;
27039;SDS011;14589;51.578;7.306;2023-07-31T11:34:53;3.72;;;1.27;;
27039;SDS011;14589;51.578;7.306;2023-07-31T11:37:24;5.07;;;1.17;;
27039;SDS011;14589;51.578;7.306;2023-07-31T11:40:09;2.88;;;1.23;;
27039;SDS011;14589;51.578;7.306;2023-07-31T11:42:40;1.70;;;0.80;;
27039;SDS011;14589;51.578;7.306;2023-07-31T11:45:13;3.17;;;1.25;;
27039;SDS011;14589;51.578;7.306;2023-07-31T11:47:44;2.83;;;0.82;;
27039;SDS011;14589;51.578;7.306;2023-07-31T11:50:15;2.80;;;1.33;;
27039;SDS011;14589;51.578;7.306;2023-07-31T11:52:46;2.97;;;1.33;;
27039;SDS011;14589;51.578;7.306;2023-07-31T11:55:20;4.32;;;1.65;;
27039;SDS011;14589;51.578;7.306;2023-07-31T11:57:51;3.47;;;1.42;;
27039;SDS011;14589;51.578;7.306;2023-07-31T12:00:23;3.00;;;1.63;;
27039;SDS011;14589;51.578;7.306;2023-07-31T12:02:54;4.35;;;1.15;;
27039;SDS011;14589;51.578;7.306;2023-07-31T12:05:24;2.35;;;1.58;;
27039;SDS011;14589;51.578;7.306;2023-07-31T12:07:55;3.58;;;0.88;;
27039;SDS011;14589;51.578;7.306;2023-07-31T12:13:11;3.72;;;0.95;;
27039;SDS011;14589;51.578;7.306;2023-07-31T12:15:53;2.13;;;1.33;;
27039;SDS011;14589;51.578;7.306;2023-07-31T12:18:27;3.95;;;1.08;;
27039;SDS011;14589;51.578;7.306;2023-07-31T12:21:00;3.35;;;0.90;;
27039;SDS011;14589;51.578;7.306;2023-07-31T12:23:32;2.28;;;0.80;;
27039;SDS011;14589;51.578;7.306;2023-07-31T12:26:07;2.28;;;1.23;;
27039;SDS011;14589;51.578;7.306;2023-07-31T12:31:20;2.58;;;0.52;;
27039;SDS011;14589;51.578;7.306;2023-07-31T12:33:51;3.45;;;1.02;;
27039;SDS011;14589;51.578;7.306;2023-07-31T12:36:23;1.60;;;0.70;;
27039;SDS011;14589;51.578;7.306;2023-07-31T12:38:54;2.42;;;0.50;;
27039;SDS011;14589;51.578;7.306;2023-07-31T12:41:26;3.63;;;0.45;;
27039;SDS011;14589;51.578;7.306;2023-07-31T12:43:56;2.45;;;0.60;;
27039;SDS011;14589;51.578;7.306;2023-07-31T12:46:27;2.45;;;0.70;;
27039;SDS011;14589;51.578;7.306;2023-07-31T12:48:57;2.88;;;0.70;;
27039;SDS011;14589;51.578;7.306;2023-07-31T12:51:27;3.08;;;0.77;;
27039;SDS011;14589;51.578;7.306;2023-07-31T12:53:58;3.63;;;0.82;;
27039;SDS011;14589;51.578;7.306;2023-07-31T12:56:28;2.97;;;1.23;;
27039;SDS011;14589;51.578;7.306;2023-07-31T12:58:59;2.08;;;0.98;;
27039;SDS011;14589;51.578;7.306;2023-07-31T13:01:29;3.22;;;1.30;;
27039;SDS011;14589;51.578;7.306;2023-07-31T13:03:59;2.50;;;0.57;;
27039;SDS011;14589;51.578;7.306;2023-07-31T13:06:30;2.42;;;1.02;;
27039;SDS011;14589;51.578;7.306;2023-07-31T13:09:00;4.07;;;1.15;;
27039;SDS011;14589;51.578;7.306;2023-07-31T13:11:30;1.65;;;0.60;;
27039;SDS011;14589;51.578;7.306;2023-07-31T13:14:01;1.92;;;0.75;;
27039;SDS011;14589;51.578;7.306;2023-07-31T13:16:32;1.83;;;0.63;;
27039;SDS011;14589;51.578;7.306;2023-07-31T13:19:02;1.98;;;0.40;;
27039;SDS011;14589;51.578;7.306;2023-07-31T13:21:32;2.05;;;0.70;;
27039;SDS011;14589;51.578;7.306;2023-07-31T13:24:05;2.38;;;1.08;;
27039;SDS011;14589;51.578;7.306;2023-07-31T13:26:36;2.63;;;1.83;;
27039;SDS011;14589;51.578;7.306;2023-07-31T13:29:07;2.25;;;0.63;;
27039;SDS011;14589;51.578;7.306;2023-07-31T13:31:37;2.45;;;1.02;;
27039;SDS011;14589;51.578;7.306;2023-07-31T13:34:08;1.83;;;0.90;;
27039;SDS011;14589;51.578;7.306;2023-07-31T13:36:38;1.80;;;0.63;;
27039;SDS011;14589;51.578;7.306;2023-07-31T13:39:08;1.77;;;0.85;;
27039;SDS011;14589;51.578;7.306;2023-07-31T13:41:39;1.65;;;0.68;;
27039;SDS011;14589;51.578;7.306;2023-07-31T13:44:09;1.00;;;0.40;;
27039;SDS011;14589;51.578;7.306;2023-07-31T13:46:39;1.42;;;0.75;;
27039;SDS011;14589;51.578;7.306;2023-07-31T13:49:10;1.25;;;0.65;;
27039;SDS011;14589;51.578;7.306;2023-07-31T13:51:40;1.67;;;0.82;;
27039;SDS011;14589;51.578;7.306;2023-07-31T13:54:10;1.30;;;0.40;;
27039;SDS011;14589;51.578;7.306;2023-07-31T13:56:42;2.17;;;0.75;;
27039;SDS011;14589;51.578;7.306;2023-07-31T13:59:13;3.97;;;2.00;;
27039;SDS011;14589;51.578;7.306;2023-07-31T14:04:15;2.97;;;0.73;;
27039;SDS011;14589;51.578;7.306;2023-07-31T14:06:47;1.77;;;0.98;;
27039;SDS011;14589;51.578;7.306;2023-07-31T14:09:20;2.53;;;1.05;;
27039;SDS011;14589;51.578;7.306;2023-07-31T14:11:50;2.25;;;0.82;;
27039;SDS011;14589;51.578;7.306;2023-07-31T14:14:21;3.55;;;1.40;;
27039;SDS011;14589;51.578;7.306;2023-07-31T14:16:51;1.65;;;0.43;;
27039;SDS011;14589;51.578;7.306;2023-07-31T14:19:22;2.20;;;0.77;;
27039;SDS011;14589;51.578;7.306;2023-07-31T14:21:52;1.83;;;0.40;;
27039;SDS011;14589;51.578;7.306;2023-07-31T14:24:22;3.05;;;0.80;;
27039;SDS011;14589;51.578;7.306;2023-07-31T14:26:53;3.45;;;0.75;;
27039;SDS011;14589;51.578;7.306;2023-07-31T14:29:23;1.67;;;0.95;;
27039;SDS011;14589;51.578;7.306;2023-07-31T14:31:54;2.95;;;0.90;;
27039;SDS011;14589;51.578;7.306;2023-07-31T14:34:24;3.83;;;0.70;;
27039;SDS011;14589;51.578;7.306;2023-07-31T14:36:54;2.35;;;0.80;;
27039;SDS011;14589;51.578;7.306;2023-07-31T14:39:25;3.75;;;0.43;;
27039;SDS011;14589;51.578;7.306;2023-07-31T14:41:55;4.55;;;0.80;;
27039;SDS011;14589;51.578;7.306;2023-07-31T14:44:25;2.17;;;1.20;;
27039;SDS011;14589;51.578;7.306;2023-07-31T14:46:56;2.05;;;0.73;;
27039;SDS011;14589;51.578;7.306;2023-07-31T14:49:26;4.00;;;1.13;;
27039;SDS011;14589;51.578;7.306;2023-07-31T14:51:59;3.80;;;1.23;;
27039;SDS011;14589;51.578;7.306;2023-07-31T14:54:30;1.88;;;0.77;;
27039;SDS011;14589;51.578;7.306;2023-07-31T14:57:00;2.45;;;0.80;;
27039;SDS011;14589;51.578;7.306;2023-07-31T14:59:30;3.70;;;1.08;;
27039;SDS011;14589;51.578;7.306;2023-07-31T15:02:01;3.00;;;0.60;;
27039;SDS011;14589;51.578;7.306;2023-07-31T15:04:32;3.15;;;2.00;;
27039;SDS011;14589;51.578;7.306;2023-07-31T15:07:03;3.15;;;1.38;;
27039;SDS011;14589;51.578;7.306;2023-07-31T15:09:33;6.85;;;1.25;;
27039;SDS011;14589;51.578;7.306;2023-07-31T15:12:04;3.40;;;1.00;;
27039;SDS011;14589;51.578;7.306;2023-07-31T15:14:34;3.95;;;1.02;;
27039;SDS011;14589;51.578;7.306;2023-07-31T15:17:05;4.68;;;1.10;;
27039;SDS011;14589;51.578;7.306;2023-07-31T15:19:35;4.93;;;1.02;;
27039;SDS011;14589;51.578;7.306;2023-07-31T15:22:06;2.63;;;1.02;;
27039;SDS011;14589;51.578;7.306;2023-07-31T15:24:37;4.13;;;1.58;;
27039;SDS011;14589;51.578;7.306;2023-07-31T15:27:07;4.22;;;0.55;;
27039;SDS011;14589;51.578;7.306;2023-07-31T15:29:38;3.72;;;1.17;;